Terminal Aerodrome Forecast
Issued by NWS

Home | Current Version | Previous Version | Text Only | Print | Product List | Glossary On
Versions: 1 2 3 4 5 6 7 8 9 10 11 12 13
000
FTUS46 KHNX 021130
TAFBFL
TAF
KBFL 021130Z 0212/0312 VRB04KT P6SM SCT100 BKN200
     FM022000 30010KT P6SM SCT100 BKN200
      TEMPO 0223/0302 32012G19KT
     FM030600 35007KT P6SM SCT200=

USA.gov is the U.S. government's official web portal to all federal, state and local government web resources and services.